createdAt,value
2022-09-15T00:02:37.420Z,7.20
2022-09-15T00:05:04.533Z,3.00
2022-09-15T00:07:31.394Z,3.65
2022-09-15T00:12:25.182Z,5.40
2022-09-15T00:14:51.943Z,8.52
2022-09-15T00:19:45.710Z,3.28
2022-09-15T00:22:13.059Z,8.07
2022-09-15T00:24:41.009Z,4.63
2022-09-15T00:27:08.282Z,4.80
2022-09-15T00:29:36.044Z,3.22
2022-09-15T00:32:02.992Z,5.72
2022-09-15T00:34:29.968Z,5.13
2022-09-15T00:36:56.723Z,4.47
2022-09-15T00:39:23.618Z,1.92
2022-09-15T00:41:50.458Z,6.10
2022-09-15T00:44:17.189Z,2.55
2022-09-15T00:49:34.736Z,3.30
2022-09-15T00:52:09.787Z,4.35
2022-09-15T00:55:01.520Z,3.03
2022-09-15T00:57:36.991Z,1.08
2022-09-15T01:00:09.155Z,1.30
2022-09-15T01:02:37.653Z,3.72
2022-09-15T01:05:08.770Z,2.83
2022-09-15T01:07:43.778Z,3.17
2022-09-15T01:10:17.787Z,1.80
2022-09-15T01:12:44.635Z,3.25
2022-09-15T01:15:12.080Z,7.22
2022-09-15T01:18:00.350Z,1.67
2022-09-15T01:20:51.484Z,0.75
2022-09-15T01:23:36.691Z,3.30
2022-09-15T01:26:09.297Z,2.75
2022-09-15T01:28:57.975Z,0.70
2022-09-15T01:31:30.677Z,4.10
2022-09-15T01:34:11.311Z,3.78
2022-09-15T01:37:01.186Z,1.63
2022-09-15T01:39:34.888Z,4.72
2022-09-15T01:42:08.895Z,2.40
2022-09-15T01:44:54.964Z,2.13
2022-09-15T01:47:23.575Z,2.50
2022-09-15T01:49:54.823Z,2.00
2022-09-15T01:52:24.019Z,3.35
2022-09-15T01:54:55.985Z,4.20
2022-09-15T01:57:23.120Z,4.10
2022-09-15T01:59:51.519Z,1.33
2022-09-15T02:02:44.049Z,4.20
2022-09-15T02:05:20.605Z,4.25
2022-09-15T02:07:57.106Z,4.35
2022-09-15T02:10:58.781Z,8.23
2022-09-15T02:13:34.012Z,2.35
2022-09-15T02:16:01.056Z,2.10
2022-09-15T02:19:08.768Z,4.70
2022-09-15T02:22:08.050Z,4.57
2022-09-15T02:24:44.868Z,4.00
2022-09-15T02:27:21.826Z,1.85
2022-09-15T02:29:50.080Z,3.08
2022-09-15T02:32:21.038Z,3.95
2022-09-15T02:34:51.496Z,8.60
2022-09-15T02:37:21.491Z,5.07
2022-09-15T02:39:53.515Z,6.63
2022-09-15T02:42:29.542Z,5.57
2022-09-15T02:44:56.838Z,5.13
2022-09-15T02:47:24.422Z,1.77
2022-09-15T02:49:51.301Z,1.20
2022-09-15T02:52:18.209Z,4.60
2022-09-15T02:54:45.142Z,2.92
2022-09-15T02:57:13.945Z,4.75
2022-09-15T02:59:59.394Z,6.43
2022-09-15T03:02:26.712Z,5.80
2022-09-15T03:04:53.761Z,4.53
2022-09-15T03:07:21.581Z,12.43
2022-09-15T03:09:48.432Z,6.82
2022-09-15T03:12:15.878Z,3.28
2022-09-15T03:14:42.929Z,2.47
2022-09-15T03:17:09.870Z,2.63
2022-09-15T03:19:36.723Z,5.22
2022-09-15T03:24:30.311Z,2.55
2022-09-15T03:26:57.151Z,3.97
2022-09-15T03:31:50.849Z,6.70
2022-09-15T03:34:17.859Z,5.10
2022-09-15T03:36:44.830Z,7.82
2022-09-15T03:39:15.066Z,2.25
2022-09-15T03:41:42.124Z,3.53
2022-09-15T03:44:09.039Z,3.88
2022-09-15T03:46:35.881Z,3.33
2022-09-15T03:51:30.293Z,2.97
2022-09-15T03:53:57.237Z,6.30
2022-09-15T03:56:31.300Z,4.10
2022-09-15T03:59:02.085Z,2.55
2022-09-15T04:01:30.498Z,6.57
2022-09-15T04:03:58.509Z,2.78
2022-09-15T04:06:26.499Z,3.80
2022-09-15T04:08:54.107Z,4.60
2022-09-15T04:11:22.763Z,5.22
2022-09-15T04:13:50.090Z,2.30
2022-09-15T04:16:19.281Z,5.25
2022-09-15T04:18:46.864Z,5.82
2022-09-15T04:21:16.761Z,1.98
2022-09-15T04:23:44.703Z,8.75
2022-09-15T04:26:22.378Z,1.90
2022-09-15T04:28:49.398Z,3.33
2022-09-15T04:31:17.408Z,5.15
2022-09-15T04:33:45.214Z,6.90
2022-09-15T04:36:19.131Z,2.13
2022-09-15T04:38:45.980Z,11.90
2022-09-15T04:43:40.684Z,7.07
2022-09-15T04:46:07.814Z,1.48
2022-09-15T04:48:35.443Z,4.15
2022-09-15T04:51:04.088Z,3.42
2022-09-15T04:53:31.344Z,4.70
2022-09-15T04:56:16.071Z,3.75
2022-09-15T04:58:45.156Z,5.78
2022-09-15T05:01:20.677Z,4.70
2022-09-15T05:03:47.967Z,2.63
2022-09-15T05:06:20.864Z,2.63
2022-09-15T05:08:52.730Z,4.20
2022-09-15T05:11:20.725Z,4.80
2022-09-15T05:13:48.416Z,3.42
2022-09-15T05:16:18.561Z,4.20
2022-09-15T05:18:47.358Z,4.88
2022-09-15T05:21:16.187Z,3.92
2022-09-15T05:23:43.755Z,3.28
2022-09-15T05:26:16.610Z,6.57
2022-09-15T05:28:43.777Z,10.07
2022-09-15T05:31:21.764Z,9.27
2022-09-15T05:33:50.122Z,2.67
2022-09-15T05:36:18.625Z,4.88
2022-09-15T05:38:45.992Z,3.25
2022-09-15T05:41:16.941Z,5.20
2022-09-15T05:43:48.381Z,5.43
2022-09-15T05:46:17.608Z,5.53
2022-09-15T05:48:45.320Z,1.48
2022-09-15T05:51:12.822Z,7.07
2022-09-15T05:53:40.371Z,4.13
2022-09-15T05:56:11.924Z,3.60
2022-09-15T05:58:41.066Z,4.15
2022-09-15T06:01:11.741Z,8.02
2022-09-15T06:03:38.786Z,2.13
2022-09-15T06:06:06.521Z,6.18
2022-09-15T06:08:35.251Z,3.72
2022-09-15T06:11:08.022Z,1.50
2022-09-15T06:13:35.280Z,1.08
2022-09-15T06:16:07.833Z,2.00
2022-09-15T06:18:37.262Z,5.50
2022-09-15T06:21:25.739Z,1.88
2022-09-15T06:23:55.199Z,3.63
2022-09-15T06:26:22.997Z,3.90
2022-09-15T06:28:55.067Z,2.45
2022-09-15T06:31:23.480Z,3.03
2022-09-15T06:33:52.023Z,2.17
2022-09-15T06:36:21.203Z,3.05
2022-09-15T06:38:48.576Z,2.45
2022-09-15T06:41:16.639Z,1.13
2022-09-15T06:43:44.127Z,1.95
2022-09-15T06:46:12.317Z,12.57
2022-09-15T06:48:40.157Z,3.25
2022-09-15T06:51:10.243Z,6.22
2022-09-15T06:53:38.407Z,5.53
2022-09-15T06:56:10.172Z,5.10
2022-09-15T06:58:39.399Z,2.45
2022-09-15T07:01:10.024Z,4.60
2022-09-15T07:03:38.644Z,4.40
2022-09-15T07:06:06.572Z,2.78
2022-09-15T07:08:34.131Z,1.67
2022-09-15T07:11:01.258Z,3.22
2022-09-15T07:13:28.339Z,6.95
2022-09-15T07:16:00.727Z,1.90
2022-09-15T07:18:28.295Z,1.08
2022-09-15T07:21:00.430Z,1.80
2022-09-15T07:23:27.675Z,1.40
2022-09-15T07:26:09.627Z,0.95
2022-09-15T07:28:37.187Z,2.10
2022-09-15T07:31:06.201Z,2.08
2022-09-15T07:33:34.176Z,2.00
2022-09-15T07:36:02.884Z,1.17
2022-09-15T07:38:30.475Z,1.33
2022-09-15T07:41:13.072Z,2.25
2022-09-15T07:43:40.693Z,3.72
2022-09-15T07:46:07.828Z,1.70
2022-09-15T07:48:34.940Z,9.23
2022-09-15T07:51:02.056Z,2.78
2022-09-15T07:53:30.381Z,2.15
2022-09-15T07:55:57.693Z,14.07
2022-09-15T07:58:25.475Z,1.40
2022-09-15T08:00:52.550Z,1.77
2022-09-15T08:03:19.659Z,2.33
2022-09-15T08:05:46.528Z,1.73
2022-09-15T08:08:13.668Z,1.20
2022-09-15T08:10:41.511Z,2.00
2022-09-15T08:13:08.761Z,2.47
2022-09-15T08:15:37.607Z,3.58
2022-09-15T08:18:06.255Z,3.03
2022-09-15T08:20:33.497Z,2.53
2022-09-15T08:23:00.561Z,2.63
2022-09-15T08:25:27.601Z,6.65
2022-09-15T08:27:56.412Z,3.88
2022-09-15T08:30:23.740Z,6.15
2022-09-15T08:32:50.917Z,2.20
2022-09-15T08:35:19.282Z,1.73
2022-09-15T08:37:47.310Z,2.60
2022-09-15T08:40:25.520Z,2.38
2022-09-15T08:42:55.650Z,5.05
2022-09-15T08:45:22.826Z,1.90
2022-09-15T08:47:56.109Z,2.30
2022-09-15T08:50:43.441Z,5.80
2022-09-15T08:53:18.485Z,2.67
2022-09-15T08:55:49.529Z,3.50
2022-09-15T08:58:21.790Z,4.93
2022-09-15T09:00:52.135Z,2.40
2022-09-15T09:03:25.236Z,3.88
2022-09-15T09:06:26.551Z,2.55
2022-09-15T09:09:15.617Z,2.88
2022-09-15T09:12:02.525Z,1.60
2022-09-15T09:14:50.973Z,4.05
2022-09-15T09:17:48.856Z,2.78
2022-09-15T09:20:32.186Z,2.70
2022-09-15T09:23:03.873Z,2.15
2022-09-15T09:25:31.313Z,2.22
2022-09-15T09:27:59.350Z,2.25
2022-09-15T09:30:29.591Z,6.07
2022-09-15T09:33:10.570Z,3.58
2022-09-15T09:35:51.667Z,2.15
2022-09-15T09:38:35.726Z,2.75
2022-09-15T09:41:08.143Z,2.10
2022-09-15T09:43:35.108Z,2.75
2022-09-15T09:46:02.529Z,2.08
2022-09-15T09:48:30.127Z,2.28
2022-09-15T09:50:57.248Z,1.67
2022-09-15T09:53:31.207Z,2.97
2022-09-15T09:56:23.910Z,3.28
2022-09-15T09:58:51.086Z,3.20
2022-09-15T10:01:20.730Z,4.70
2022-09-15T10:03:47.844Z,4.43
2022-09-15T10:06:18.868Z,1.85
2022-09-15T10:09:03.748Z,4.72
2022-09-15T10:12:01.405Z,2.72
2022-09-15T10:14:35.564Z,4.05
2022-09-15T10:17:10.229Z,4.63
2022-09-15T10:19:49.503Z,2.25
2022-09-15T10:22:33.436Z,3.65
2022-09-15T10:25:02.574Z,2.42
2022-09-15T10:27:35.409Z,1.38
2022-09-15T10:30:14.758Z,1.58
2022-09-15T10:32:43.328Z,0.73
2022-09-15T10:35:18.164Z,3.92
2022-09-15T10:37:54.125Z,2.65
2022-09-15T10:40:51.781Z,4.50
2022-09-15T10:43:39.922Z,2.67
2022-09-15T10:46:15.715Z,1.85
2022-09-15T10:49:04.447Z,1.67
2022-09-15T10:52:11.696Z,0.93
2022-09-15T10:55:03.568Z,2.63
2022-09-15T10:58:05.022Z,2.80
2022-09-15T11:01:07.519Z,4.53
2022-09-15T11:03:46.727Z,1.65
2022-09-15T11:06:24.345Z,1.70
2022-09-15T11:09:27.204Z,1.63
2022-09-15T11:12:25.888Z,4.22
2022-09-15T11:15:03.854Z,2.80
2022-09-15T11:17:55.218Z,3.00
2022-09-15T11:20:46.167Z,4.65
2022-09-15T11:23:37.540Z,3.47
2022-09-15T11:26:23.374Z,1.63
2022-09-15T11:28:57.858Z,3.08
2022-09-15T11:31:38.774Z,2.60
2022-09-15T11:34:26.904Z,2.47
2022-09-15T11:37:13.157Z,2.05
2022-09-15T11:39:46.822Z,2.13
2022-09-15T11:42:36.202Z,1.13
2022-09-15T11:45:04.067Z,5.22
2022-09-15T11:47:36.457Z,1.08
2022-09-15T11:50:29.412Z,1.20
2022-09-15T11:53:16.703Z,1.52
2022-09-15T11:55:49.213Z,1.80
2022-09-15T11:58:21.847Z,5.03
2022-09-15T12:01:10.397Z,5.88
2022-09-15T12:03:50.572Z,2.85
2022-09-15T12:06:45.939Z,1.38
2022-09-15T12:09:16.567Z,2.38
2022-09-15T12:11:47.519Z,2.08
2022-09-15T12:14:27.050Z,1.60
2022-09-15T12:16:54.383Z,1.90
2022-09-15T12:19:36.476Z,1.23
2022-09-15T12:22:12.079Z,2.08
2022-09-15T12:25:04.136Z,3.63
2022-09-15T12:27:31.229Z,2.10
2022-09-15T12:30:01.160Z,2.35
2022-09-15T12:32:33.369Z,3.35
2022-09-15T12:35:25.964Z,2.25
2022-09-15T12:37:55.863Z,8.32
2022-09-15T12:40:39.064Z,4.22
2022-09-15T12:43:15.983Z,2.45
2022-09-15T12:45:53.552Z,1.30
2022-09-15T12:48:30.363Z,1.20
2022-09-15T12:51:05.001Z,4.05
2022-09-15T12:53:46.256Z,13.57
2022-09-15T12:56:29.566Z,5.60
2022-09-15T12:58:56.863Z,2.35
2022-09-15T13:01:26.744Z,3.22
2022-09-15T13:03:54.079Z,2.97
2022-09-15T13:06:30.884Z,2.05
2022-09-15T13:09:05.287Z,1.00
2022-09-15T13:11:38.220Z,2.33
2022-09-15T13:14:08.226Z,3.13
2022-09-15T13:16:46.742Z,0.93
2022-09-15T13:19:36.011Z,4.28
2022-09-15T13:22:11.864Z,2.78
2022-09-15T13:24:50.674Z,2.17
2022-09-15T13:27:21.958Z,1.92
2022-09-15T13:29:54.784Z,2.58
2022-09-15T13:32:40.194Z,3.60
2022-09-15T13:35:44.613Z,2.00
2022-09-15T13:38:42.675Z,1.77
2022-09-15T13:41:21.305Z,3.05
2022-09-15T13:44:35.229Z,1.77
2022-09-15T13:47:33.337Z,4.55
2022-09-15T13:50:15.015Z,4.82
2022-09-15T13:53:00.708Z,4.53
2022-09-15T13:55:29.689Z,1.27
2022-09-15T14:00:58.462Z,1.98
2022-09-15T14:03:40.496Z,1.40
2022-09-15T14:06:14.199Z,4.10
2022-09-15T14:08:43.351Z,1.10
2022-09-15T14:11:14.444Z,1.58
2022-09-15T14:13:47.329Z,2.10
2022-09-15T14:16:31.156Z,2.28
2022-09-15T14:18:59.986Z,3.17
2022-09-15T14:21:32.829Z,1.17
2022-09-15T14:24:25.808Z,3.30
2022-09-15T14:26:52.840Z,2.88
2022-09-15T14:29:22.312Z,2.58
2022-09-15T14:31:49.551Z,2.88
2022-09-15T14:34:16.423Z,2.85
2022-09-15T14:36:43.496Z,3.10
2022-09-15T14:39:18.437Z,4.20
2022-09-15T14:41:46.045Z,2.25
2022-09-15T14:47:28.548Z,3.50
2022-09-15T14:50:13.261Z,6.53
2022-09-15T14:52:47.507Z,2.13
2022-09-15T14:55:25.408Z,3.17
2022-09-15T14:58:03.313Z,1.42
2022-09-15T15:00:37.256Z,3.22
2022-09-15T15:03:25.471Z,1.08
2022-09-15T15:06:03.014Z,4.43
2022-09-15T15:09:17.603Z,1.50
2022-09-15T15:11:45.377Z,2.55
2022-09-15T15:14:13.365Z,1.92
2022-09-15T15:16:52.577Z,3.15
2022-09-15T15:19:33.964Z,2.55
2022-09-15T15:22:21.317Z,1.35
2022-09-15T15:24:51.048Z,1.30
2022-09-15T15:27:34.026Z,3.03
2022-09-15T15:30:30.832Z,4.95
2022-09-15T15:33:26.533Z,1.13
2022-09-15T15:36:05.404Z,1.50
2022-09-15T15:39:00.320Z,6.13
2022-09-15T15:41:35.686Z,1.48
2022-09-15T15:44:07.949Z,1.98
2022-09-15T15:46:51.988Z,3.08
2022-09-15T15:49:21.074Z,2.60
2022-09-15T15:51:48.545Z,3.13
2022-09-15T15:54:15.892Z,1.45
2022-09-15T15:56:42.837Z,7.07
2022-09-15T15:59:12.936Z,3.85
2022-09-15T16:01:40.131Z,8.73
2022-09-15T16:04:07.558Z,2.35
2022-09-15T16:06:35.539Z,1.20
2022-09-15T16:09:03.913Z,3.58
2022-09-15T16:11:30.865Z,2.40
2022-09-15T16:13:57.836Z,7.95
2022-09-15T16:16:26.754Z,2.22
2022-09-15T16:18:53.987Z,3.05
2022-09-15T16:21:36.829Z,3.03
2022-09-15T16:24:05.744Z,4.55
2022-09-15T16:26:35.469Z,5.05
2022-09-15T16:29:03.647Z,3.33
2022-09-15T16:31:31.415Z,5.00
2022-09-15T16:33:58.853Z,4.72
2022-09-15T16:36:26.317Z,4.43
2022-09-15T16:38:53.304Z,2.17
2022-09-15T16:41:25.518Z,1.88
2022-09-15T16:43:59.342Z,2.45
2022-09-15T16:46:26.303Z,2.25
2022-09-15T16:48:53.267Z,2.60
2022-09-15T16:51:28.728Z,1.38
2022-09-15T16:53:56.758Z,2.57
2022-09-15T16:56:23.902Z,3.22
2022-09-15T16:58:58.840Z,1.98
2022-09-15T17:01:26.987Z,2.00
2022-09-15T17:03:54.047Z,1.50
2022-09-15T17:06:22.102Z,1.45
2022-09-15T17:08:49.483Z,1.27
2022-09-15T17:11:18.899Z,1.75
2022-09-15T17:13:46.872Z,3.10
2022-09-15T17:16:19.176Z,3.55
2022-09-15T17:18:46.899Z,2.63
2022-09-15T17:21:16.714Z,3.83
2022-09-15T17:23:45.998Z,6.90
2022-09-15T17:26:15.497Z,1.73
2022-09-15T17:28:42.398Z,4.43
2022-09-15T17:31:16.226Z,1.98
2022-09-15T17:33:44.179Z,3.25
2022-09-15T17:36:11.974Z,2.30
2022-09-15T17:38:41.174Z,1.15
2022-09-15T17:41:14.785Z,3.20
2022-09-15T17:43:42.343Z,9.15
2022-09-15T17:46:09.294Z,1.83
2022-09-15T17:48:38.772Z,2.05
2022-09-15T17:51:14.974Z,3.13
2022-09-15T17:53:42.485Z,4.30
2022-09-15T17:56:09.546Z,1.70
2022-09-15T17:58:36.304Z,1.73
2022-09-15T18:03:34.737Z,1.40
2022-09-15T18:06:05.227Z,6.93
2022-09-15T18:08:36.072Z,2.00
2022-09-15T18:11:04.558Z,3.10
2022-09-15T18:13:31.735Z,1.73
2022-09-15T18:16:04.712Z,2.58
2022-09-15T18:18:31.767Z,1.58
2022-09-15T18:20:58.991Z,2.25
2022-09-15T18:23:28.309Z,2.17
2022-09-15T18:25:55.669Z,1.08
2022-09-15T18:28:22.573Z,2.20
2022-09-15T18:30:50.620Z,1.63
2022-09-15T18:33:20.286Z,2.20
2022-09-15T18:35:49.786Z,2.55
2022-09-15T18:38:17.028Z,4.43
2022-09-15T18:40:53.355Z,1.20
2022-09-15T18:43:21.563Z,3.10
2022-09-15T18:45:49.152Z,1.17
2022-09-15T18:48:16.387Z,5.97
2022-09-15T18:50:44.663Z,1.70
2022-09-15T18:53:12.097Z,1.10
2022-09-15T18:55:41.726Z,2.38
2022-09-15T18:58:09.070Z,3.45
2022-09-15T19:00:36.151Z,2.63
2022-09-15T19:03:06.834Z,3.22
2022-09-15T19:05:34.225Z,1.38
2022-09-15T19:08:02.166Z,2.83
2022-09-15T19:10:29.655Z,1.98
2022-09-15T19:12:56.712Z,4.72
2022-09-15T19:15:24.069Z,1.88
2022-09-15T19:17:51.499Z,1.70
2022-09-15T19:20:18.968Z,2.90
2022-09-15T19:22:46.350Z,1.33
2022-09-15T19:25:13.662Z,1.48
2022-09-15T19:27:41.237Z,3.88
2022-09-15T19:30:12.611Z,3.95
2022-09-15T19:32:40.539Z,1.13
2022-09-15T19:35:08.516Z,2.05
2022-09-15T19:37:37.703Z,3.08
2022-09-15T19:40:08.558Z,1.65
2022-09-15T19:42:36.747Z,2.85
2022-09-15T19:45:04.180Z,2.40
2022-09-15T19:47:31.110Z,2.33
2022-09-15T19:49:58.178Z,3.65
2022-09-15T19:52:25.242Z,2.90
2022-09-15T19:54:52.277Z,3.10
2022-09-15T19:57:19.319Z,6.03
2022-09-15T19:59:46.352Z,8.52
2022-09-15T20:02:13.354Z,5.50
2022-09-15T20:04:40.684Z,3.97
2022-09-15T20:07:07.813Z,7.35
2022-09-15T20:09:35.070Z,3.80
2022-09-15T20:12:03.354Z,4.55
2022-09-15T20:14:31.299Z,5.40
2022-09-15T20:17:01.155Z,5.80
2022-09-15T20:19:29.928Z,2.92
2022-09-15T20:21:56.988Z,4.97
2022-09-15T20:24:24.651Z,5.45
2022-09-15T20:26:52.084Z,2.55
2022-09-15T20:29:20.232Z,3.65
2022-09-15T20:31:47.943Z,4.25
2022-09-15T20:34:15.369Z,12.07
2022-09-15T20:36:43.484Z,7.50
2022-09-15T20:39:13.276Z,6.70
2022-09-15T20:41:41.825Z,3.72
2022-09-15T20:44:11.977Z,6.53
2022-09-15T20:46:39.128Z,7.20
2022-09-15T20:49:06.875Z,11.05
2022-09-15T20:51:34.107Z,12.60
2022-09-15T20:54:03.452Z,7.18
2022-09-15T20:56:32.202Z,8.73
2022-09-15T20:59:00.006Z,7.53
2022-09-15T21:01:34.969Z,9.65
2022-09-15T21:04:02.702Z,14.32
2022-09-15T21:06:29.935Z,6.93
2022-09-15T21:08:57.819Z,5.90
2022-09-15T21:11:26.696Z,6.93
2022-09-15T21:13:54.984Z,8.40
2022-09-15T21:16:24.441Z,7.07
2022-09-15T21:18:52.115Z,7.25
2022-09-15T21:21:22.070Z,4.55
2022-09-15T21:23:51.767Z,7.80
2022-09-15T21:26:23.826Z,7.65
2022-09-15T21:28:51.389Z,9.60
2022-09-15T21:31:27.104Z,8.68
2022-09-15T21:33:55.091Z,7.05
2022-09-15T21:36:25.225Z,10.15
2022-09-15T21:38:54.134Z,10.27
2022-09-15T21:41:23.330Z,7.50
2022-09-15T21:43:54.701Z,7.90
2022-09-15T21:46:27.035Z,9.00
2022-09-15T21:48:56.236Z,10.65
2022-09-15T21:51:25.244Z,8.52
2022-09-15T21:53:54.119Z,6.47
2022-09-15T21:56:22.164Z,11.63
2022-09-15T21:58:49.233Z,12.40
2022-09-15T22:01:21.736Z,6.43
2022-09-15T22:03:51.521Z,10.82
2022-09-15T22:06:19.909Z,11.10
2022-09-15T22:08:46.868Z,10.43
2022-09-15T22:11:14.212Z,11.18
2022-09-15T22:13:43.656Z,10.75
2022-09-15T22:16:14.721Z,13.25
2022-09-15T22:18:42.723Z,11.75
2022-09-15T22:21:24.318Z,17.55
2022-09-15T22:23:53.569Z,10.80
2022-09-15T22:26:22.708Z,13.82
2022-09-15T22:28:49.553Z,18.70
2022-09-15T22:33:45.299Z,8.38
2022-09-15T22:36:14.528Z,8.52
2022-09-15T22:38:41.534Z,10.90
2022-09-15T22:41:12.098Z,16.63
2022-09-15T22:43:40.141Z,12.40
2022-09-15T22:46:07.563Z,12.10
2022-09-15T22:48:37.494Z,11.80
2022-09-15T22:51:07.021Z,12.77
2022-09-15T22:53:34.159Z,11.38
2022-09-15T22:56:22.100Z,15.73
2022-09-15T23:01:21.611Z,10.93
2022-09-15T23:03:56.563Z,9.50
2022-09-15T23:06:24.815Z,11.00
2022-09-15T23:08:53.770Z,13.82
2022-09-15T23:11:20.855Z,7.95
2022-09-15T23:13:47.933Z,13.52
2022-09-15T23:16:14.747Z,9.98
2022-09-15T23:18:41.714Z,11.23
2022-09-15T23:21:10.370Z,9.85
2022-09-15T23:23:39.688Z,10.35
2022-09-15T23:26:08.580Z,11.15
2022-09-15T23:28:35.940Z,11.98
2022-09-15T23:31:03.198Z,11.75
2022-09-15T23:33:31.470Z,12.77
2022-09-15T23:36:03.750Z,11.43
2022-09-15T23:38:31.634Z,15.05
2022-09-15T23:40:58.453Z,9.35
2022-09-15T23:45:53.482Z,9.98
2022-09-15T23:48:20.751Z,9.63
2022-09-15T23:50:48.276Z,12.98
2022-09-15T23:53:15.049Z,9.23
2022-09-15T23:58:08.822Z,8.02
